Terminal Aerodrome Forecast
Issued by NWS

Home | Current Version | Previous Version | Text Only | Print | Product List | Glossary On
Versions: 1 2 3 4 5 6 7 8 9 10 11 12 13 14
000
FTUS44 KCRP 050531
TAFLRD
TAF
KLRD 050531Z 0506/0606 14012KT P6SM SCT040
     FM050700 15008KT P6SM SCT015
      TEMPO 0510/0514 BKN015
     FM051430 15014KT P6SM SCT050
     FM051600 14015G22KT P6SM FEW060=

USA.gov is the U.S. government's official web portal to all federal, state and local government web resources and services.